sensor_id;sensor_type;location;lat;lon;timestamp;pressure;altitude;pressure_sealevel;temperature;humidity
33151;BME280;19508;42.578;23.416;2024-03-08T00:00:50;93700.59;;;6.37;95.84
33151;BME280;19508;42.578;23.416;2024-03-08T00:03:17;93697.13;;;6.48;95.28
33151;BME280;19508;42.578;23.416;2024-03-08T00:05:42;93698.78;;;6.49;95.31
33151;BME280;19508;42.578;23.416;2024-03-08T00:08:08;93682.34;;;6.46;95.30
33151;BME280;19508;42.578;23.416;2024-03-08T00:10:35;93679.66;;;6.58;94.57
33151;BME280;19508;42.578;23.416;2024-03-08T00:13:01;93701.34;;;6.68;93.88
33151;BME280;19508;42.578;23.416;2024-03-08T00:15:29;93699.22;;;6.70;93.62
33151;BME280;19508;42.578;23.416;2024-03-08T00:17:54;93694.81;;;6.64;93.47
33151;BME280;19508;42.578;23.416;2024-03-08T00:20:20;93692.59;;;6.61;94.00
33151;BME280;19508;42.578;23.416;2024-03-08T00:22:45;93696.44;;;6.41;95.04
33151;BME280;19508;42.578;23.416;2024-03-08T00:25:11;93685.38;;;6.38;95.51
33151;BME280;19508;42.578;23.416;2024-03-08T00:27:40;93684.31;;;6.39;95.43
33151;BME280;19508;42.578;23.416;2024-03-08T00:30:06;93692.81;;;6.47;94.87
33151;BME280;19508;42.578;23.416;2024-03-08T00:32:33;93694.00;;;6.52;94.99
33151;BME280;19508;42.578;23.416;2024-03-08T00:34:58;93687.13;;;6.56;94.77
33151;BME280;19508;42.578;23.416;2024-03-08T00:37:23;93676.91;;;6.53;94.35
33151;BME280;19508;42.578;23.416;2024-03-08T00:39:50;93685.84;;;6.46;94.24
33151;BME280;19508;42.578;23.416;2024-03-08T00:42:17;93669.88;;;6.40;94.62
33151;BME280;19508;42.578;23.416;2024-03-08T00:44:42;93668.28;;;6.50;94.19
33151;BME280;19508;42.578;23.416;2024-03-08T00:47:08;93667.69;;;6.48;94.61
33151;BME280;19508;42.578;23.416;2024-03-08T00:49:33;93662.13;;;6.50;94.43
33151;BME280;19508;42.578;23.416;2024-03-08T00:51:59;93667.59;;;6.55;94.63
33151;BME280;19508;42.578;23.416;2024-03-08T00:54:24;93663.03;;;6.56;94.85
33151;BME280;19508;42.578;23.416;2024-03-08T00:56:50;93649.09;;;6.42;94.84
33151;BME280;19508;42.578;23.416;2024-03-08T00:59:15;93650.03;;;6.36;95.84
33151;BME280;19508;42.578;23.416;2024-03-08T01:01:41;93656.75;;;6.27;96.55
33151;BME280;19508;42.578;23.416;2024-03-08T01:04:06;93643.00;;;6.11;97.32
33151;BME280;19508;42.578;23.416;2024-03-08T01:06:33;93657.31;;;6.17;97.92
33151;BME280;19508;42.578;23.416;2024-03-08T01:08:59;93643.72;;;6.30;97.29
33151;BME280;19508;42.578;23.416;2024-03-08T01:11:24;93645.34;;;6.31;97.11
33151;BME280;19508;42.578;23.416;2024-03-08T01:13:50;93638.38;;;6.18;97.94
33151;BME280;19508;42.578;23.416;2024-03-08T01:16:15;93636.63;;;6.12;98.59
33151;BME280;19508;42.578;23.416;2024-03-08T01:18:42;93629.16;;;6.03;98.92
33151;BME280;19508;42.578;23.416;2024-03-08T01:21:08;93636.75;;;6.17;98.68
33151;BME280;19508;42.578;23.416;2024-03-08T01:23:33;93642.09;;;6.29;98.61
33151;BME280;19508;42.578;23.416;2024-03-08T01:26:00;93631.75;;;6.21;98.46
33151;BME280;19508;42.578;23.416;2024-03-08T01:28:26;93638.28;;;6.48;97.24
33151;BME280;19508;42.578;23.416;2024-03-08T01:30:52;93617.91;;;6.47;96.91
33151;BME280;19508;42.578;23.416;2024-03-08T01:33:24;93633.50;;;6.62;95.78
33151;BME280;19508;42.578;23.416;2024-03-08T01:35:54;93626.06;;;6.64;95.20
33151;BME280;19508;42.578;23.416;2024-03-08T01:38:20;93621.41;;;6.60;94.67
33151;BME280;19508;42.578;23.416;2024-03-08T01:40:49;93630.59;;;6.64;94.57
33151;BME280;19508;42.578;23.416;2024-03-08T01:43:22;93634.31;;;6.63;95.12
33151;BME280;19508;42.578;23.416;2024-03-08T01:45:50;93623.72;;;6.56;95.10
33151;BME280;19508;42.578;23.416;2024-03-08T01:48:17;93629.53;;;6.65;95.03
33151;BME280;19508;42.578;23.416;2024-03-08T01:50:43;93617.13;;;6.59;95.05
33151;BME280;19508;42.578;23.416;2024-03-08T01:53:09;93629.44;;;6.71;95.03
33151;BME280;19508;42.578;23.416;2024-03-08T01:55:37;93619.88;;;6.64;95.08
33151;BME280;19508;42.578;23.416;2024-03-08T01:58:04;93622.69;;;6.69;95.00
33151;BME280;19508;42.578;23.416;2024-03-08T02:00:31;93636.53;;;6.77;94.51
33151;BME280;19508;42.578;23.416;2024-03-08T02:02:58;93630.00;;;6.73;94.26
33151;BME280;19508;42.578;23.416;2024-03-08T02:05:23;93626.31;;;6.51;95.50
33151;BME280;19508;42.578;23.416;2024-03-08T02:07:49;93627.69;;;6.65;95.41
33151;BME280;19508;42.578;23.416;2024-03-08T02:10:15;93630.13;;;6.55;95.73
33151;BME280;19508;42.578;23.416;2024-03-08T02:12:41;93632.47;;;6.52;95.45
33151;BME280;19508;42.578;23.416;2024-03-08T02:15:07;93634.69;;;6.43;95.67
33151;BME280;19508;42.578;23.416;2024-03-08T02:17:32;93623.97;;;6.43;95.70
33151;BME280;19508;42.578;23.416;2024-03-08T02:20:00;93631.78;;;6.44;95.79
33151;BME280;19508;42.578;23.416;2024-03-08T02:22:28;93639.44;;;6.53;95.66
33151;BME280;19508;42.578;23.416;2024-03-08T02:24:55;93625.59;;;6.44;95.99
33151;BME280;19508;42.578;23.416;2024-03-08T02:27:24;93624.09;;;6.36;95.60
33151;BME280;19508;42.578;23.416;2024-03-08T02:29:56;93627.09;;;6.40;95.80
33151;BME280;19508;42.578;23.416;2024-03-08T02:32:23;93642.94;;;6.41;95.50
33151;BME280;19508;42.578;23.416;2024-03-08T02:34:49;93627.81;;;6.47;95.56
33151;BME280;19508;42.578;23.416;2024-03-08T02:37:15;93632.34;;;6.46;95.24
33151;BME280;19508;42.578;23.416;2024-03-08T02:39:40;93643.28;;;6.33;95.74
33151;BME280;19508;42.578;23.416;2024-03-08T02:42:06;93639.44;;;6.29;95.62
33151;BME280;19508;42.578;23.416;2024-03-08T02:44:32;93645.81;;;6.28;95.80
33151;BME280;19508;42.578;23.416;2024-03-08T02:46:59;93647.91;;;6.38;95.38
33151;BME280;19508;42.578;23.416;2024-03-08T02:49:25;93649.66;;;6.32;95.81
33151;BME280;19508;42.578;23.416;2024-03-08T02:51:54;93642.00;;;6.36;95.25
33151;BME280;19508;42.578;23.416;2024-03-08T02:54:22;93648.88;;;6.43;94.83
33151;BME280;19508;42.578;23.416;2024-03-08T02:56:49;93642.56;;;6.26;94.98
33151;BME280;19508;42.578;23.416;2024-03-08T02:59:16;93645.25;;;6.38;94.42
33151;BME280;19508;42.578;23.416;2024-03-08T03:01:42;93653.16;;;6.44;95.01
33151;BME280;19508;42.578;23.416;2024-03-08T03:04:08;93646.53;;;6.35;94.64
33151;BME280;19508;42.578;23.416;2024-03-08T03:06:33;93652.22;;;6.39;94.78
33151;BME280;19508;42.578;23.416;2024-03-08T03:08:59;93645.59;;;6.18;94.59
33151;BME280;19508;42.578;23.416;2024-03-08T03:11:24;93650.13;;;6.29;94.37
33151;BME280;19508;42.578;23.416;2024-03-08T03:13:50;93638.00;;;6.15;94.13
33151;BME280;19508;42.578;23.416;2024-03-08T03:16:19;93650.59;;;6.26;93.92
33151;BME280;19508;42.578;23.416;2024-03-08T03:18:46;93666.16;;;6.29;93.97
33151;BME280;19508;42.578;23.416;2024-03-08T03:21:29;93660.09;;;6.22;94.16
33151;BME280;19508;42.578;23.416;2024-03-08T03:23:57;93661.41;;;6.19;94.45
33151;BME280;19508;42.578;23.416;2024-03-08T03:26:24;93658.84;;;6.25;94.29
33151;BME280;19508;42.578;23.416;2024-03-08T03:28:49;93666.06;;;6.24;94.43
33151;BME280;19508;42.578;23.416;2024-03-08T03:31:15;93666.16;;;6.17;94.41
33151;BME280;19508;42.578;23.416;2024-03-08T03:33:40;93661.63;;;6.18;94.36
33151;BME280;19508;42.578;23.416;2024-03-08T03:36:06;93669.56;;;6.25;94.36
33151;BME280;19508;42.578;23.416;2024-03-08T03:38:34;93660.09;;;6.22;94.68
33151;BME280;19508;42.578;23.416;2024-03-08T03:40:59;93652.31;;;6.09;94.16
33151;BME280;19508;42.578;23.416;2024-03-08T03:43:31;93669.41;;;6.08;93.95
33151;BME280;19508;42.578;23.416;2024-03-08T03:45:57;93679.28;;;6.07;94.15
33151;BME280;19508;42.578;23.416;2024-03-08T03:48:23;93683.25;;;6.16;94.44
33151;BME280;19508;42.578;23.416;2024-03-08T03:50:48;93679.88;;;6.21;94.29
33151;BME280;19508;42.578;23.416;2024-03-08T03:53:15;93684.88;;;6.17;94.11
33151;BME280;19508;42.578;23.416;2024-03-08T03:55:41;93671.13;;;6.14;93.54
33151;BME280;19508;42.578;23.416;2024-03-08T03:58:06;93680.94;;;6.32;92.73
33151;BME280;19508;42.578;23.416;2024-03-08T04:00:32;93678.03;;;6.33;92.17
33151;BME280;19508;42.578;23.416;2024-03-08T04:02:57;93684.56;;;6.37;92.11
33151;BME280;19508;42.578;23.416;2024-03-08T04:05:24;93690.22;;;6.29;92.41
33151;BME280;19508;42.578;23.416;2024-03-08T04:07:49;93669.50;;;6.13;93.46
33151;BME280;19508;42.578;23.416;2024-03-08T04:10:15;93681.97;;;6.19;93.52
33151;BME280;19508;42.578;23.416;2024-03-08T04:12:40;93696.63;;;6.28;93.31
33151;BME280;19508;42.578;23.416;2024-03-08T04:15:05;93688.47;;;6.23;92.99
33151;BME280;19508;42.578;23.416;2024-03-08T04:17:36;93694.16;;;6.15;93.41
33151;BME280;19508;42.578;23.416;2024-03-08T04:20:03;93696.63;;;6.28;93.55
33151;BME280;19508;42.578;23.416;2024-03-08T04:22:38;93688.94;;;6.20;94.09
33151;BME280;19508;42.578;23.416;2024-03-08T04:25:05;93693.16;;;6.28;93.22
33151;BME280;19508;42.578;23.416;2024-03-08T04:27:32;93692.44;;;6.20;93.48
33151;BME280;19508;42.578;23.416;2024-03-08T04:29:58;93704.25;;;6.13;94.54
33151;BME280;19508;42.578;23.416;2024-03-08T04:32:24;93707.00;;;5.94;95.10
33151;BME280;19508;42.578;23.416;2024-03-08T04:34:50;93702.72;;;6.05;94.89
33151;BME280;19508;42.578;23.416;2024-03-08T04:37:15;93705.41;;;6.05;94.36
33151;BME280;19508;42.578;23.416;2024-03-08T04:39:46;93702.38;;;6.02;94.31
33151;BME280;19508;42.578;23.416;2024-03-08T04:42:12;93713.97;;;5.96;93.54
33151;BME280;19508;42.578;23.416;2024-03-08T04:44:39;93707.69;;;5.72;92.92
33151;BME280;19508;42.578;23.416;2024-03-08T04:47:04;93722.31;;;5.69;93.09
33151;BME280;19508;42.578;23.416;2024-03-08T04:49:33;93720.44;;;5.58;92.97
33151;BME280;19508;42.578;23.416;2024-03-08T04:52:20;93722.94;;;5.53;93.29
33151;BME280;19508;42.578;23.416;2024-03-08T04:54:45;93721.69;;;5.37;92.48
33151;BME280;19508;42.578;23.416;2024-03-08T04:57:10;93733.50;;;5.48;92.62
33151;BME280;19508;42.578;23.416;2024-03-08T04:59:36;93734.00;;;5.38;93.36
33151;BME280;19508;42.578;23.416;2024-03-08T05:02:09;93738.69;;;5.43;93.17
33151;BME280;19508;42.578;23.416;2024-03-08T05:04:34;93744.63;;;5.45;92.86
33151;BME280;19508;42.578;23.416;2024-03-08T05:07:02;93745.94;;;5.35;92.81
33151;BME280;19508;42.578;23.416;2024-03-08T05:09:29;93740.47;;;5.30;92.79
33151;BME280;19508;42.578;23.416;2024-03-08T05:11:57;93728.66;;;5.20;92.81
33151;BME280;19508;42.578;23.416;2024-03-08T05:14:26;93733.34;;;5.24;92.79
33151;BME280;19508;42.578;23.416;2024-03-08T05:16:52;93729.47;;;5.20;92.79
33151;BME280;19508;42.578;23.416;2024-03-08T05:19:19;93753.38;;;5.33;93.25
33151;BME280;19508;42.578;23.416;2024-03-08T05:21:46;93742.47;;;5.17;92.98
33151;BME280;19508;42.578;23.416;2024-03-08T05:24:15;93753.66;;;5.25;93.14
33151;BME280;19508;42.578;23.416;2024-03-08T05:26:41;93757.91;;;5.33;93.39
33151;BME280;19508;42.578;23.416;2024-03-08T05:29:07;93755.00;;;5.34;93.73
33151;BME280;19508;42.578;23.416;2024-03-08T05:31:48;93767.00;;;5.44;93.62
33151;BME280;19508;42.578;23.416;2024-03-08T05:34:15;93769.16;;;5.53;93.58
33151;BME280;19508;42.578;23.416;2024-03-08T05:36:41;93774.59;;;5.65;93.26
33151;BME280;19508;42.578;23.416;2024-03-08T05:39:10;93765.97;;;5.63;92.59
33151;BME280;19508;42.578;23.416;2024-03-08T05:41:39;93763.78;;;5.72;92.24
33151;BME280;19508;42.578;23.416;2024-03-08T05:44:05;93774.72;;;5.70;92.08
33151;BME280;19508;42.578;23.416;2024-03-08T05:46:34;93778.28;;;5.82;92.02
33151;BME280;19508;42.578;23.416;2024-03-08T05:49:04;93773.09;;;5.69;91.97
33151;BME280;19508;42.578;23.416;2024-03-08T05:51:34;93782.72;;;5.70;92.42
33151;BME280;19508;42.578;23.416;2024-03-08T05:54:04;93786.13;;;5.77;92.35
33151;BME280;19508;42.578;23.416;2024-03-08T05:56:33;93789.31;;;5.86;92.31
33151;BME280;19508;42.578;23.416;2024-03-08T05:58:59;93781.47;;;5.91;91.89
33151;BME280;19508;42.578;23.416;2024-03-08T06:01:25;93786.00;;;5.90;91.75
33151;BME280;19508;42.578;23.416;2024-03-08T06:03:52;93800.38;;;6.08;91.75
33151;BME280;19508;42.578;23.416;2024-03-08T06:06:20;93800.88;;;6.16;92.33
33151;BME280;19508;42.578;23.416;2024-03-08T06:08:47;93793.38;;;5.88;92.84
33151;BME280;19508;42.578;23.416;2024-03-08T06:11:14;93799.53;;;5.89;93.59
33151;BME280;19508;42.578;23.416;2024-03-08T06:13:42;93808.56;;;5.94;93.37
33151;BME280;19508;42.578;23.416;2024-03-08T06:16:08;93798.72;;;5.88;92.94
33151;BME280;19508;42.578;23.416;2024-03-08T06:18:37;93802.56;;;5.99;92.77
33151;BME280;19508;42.578;23.416;2024-03-08T06:21:06;93807.22;;;6.04;92.88
33151;BME280;19508;42.578;23.416;2024-03-08T06:23:35;93807.34;;;6.09;92.32
33151;BME280;19508;42.578;23.416;2024-03-08T06:26:07;93822.03;;;6.18;92.24
33151;BME280;19508;42.578;23.416;2024-03-08T06:28:36;93827.50;;;6.23;91.79
33151;BME280;19508;42.578;23.416;2024-03-08T06:31:02;93801.63;;;5.87;91.98
33151;BME280;19508;42.578;23.416;2024-03-08T06:33:28;93810.94;;;6.03;91.59
33151;BME280;19508;42.578;23.416;2024-03-08T06:35:56;93829.41;;;6.04;92.11
33151;BME280;19508;42.578;23.416;2024-03-08T06:38:28;93825.91;;;5.85;92.14
33151;BME280;19508;42.578;23.416;2024-03-08T06:40:55;93835.75;;;5.91;92.29
33151;BME280;19508;42.578;23.416;2024-03-08T06:43:24;93831.19;;;5.74;92.57
33151;BME280;19508;42.578;23.416;2024-03-08T06:45:58;93828.31;;;5.93;92.76
33151;BME280;19508;42.578;23.416;2024-03-08T06:48:23;93831.22;;;5.92;92.37
33151;BME280;19508;42.578;23.416;2024-03-08T06:50:48;93831.09;;;5.62;91.12
33151;BME280;19508;42.578;23.416;2024-03-08T06:53:14;93832.59;;;5.76;91.09
33151;BME280;19508;42.578;23.416;2024-03-08T06:55:40;93837.59;;;5.73;90.41
33151;BME280;19508;42.578;23.416;2024-03-08T06:58:05;93847.47;;;6.09;90.41
33151;BME280;19508;42.578;23.416;2024-03-08T07:00:32;93841.50;;;6.25;90.30
33151;BME280;19508;42.578;23.416;2024-03-08T07:02:58;93845.78;;;6.26;88.03
33151;BME280;19508;42.578;23.416;2024-03-08T07:05:26;93832.34;;;6.33;85.50
33151;BME280;19508;42.578;23.416;2024-03-08T07:07:52;93855.06;;;6.54;85.32
33151;BME280;19508;42.578;23.416;2024-03-08T07:10:18;93852.06;;;6.62;85.96
33151;BME280;19508;42.578;23.416;2024-03-08T07:12:44;93854.50;;;6.52;85.47
33151;BME280;19508;42.578;23.416;2024-03-08T07:15:11;93862.47;;;6.70;84.98
33151;BME280;19508;42.578;23.416;2024-03-08T07:17:39;93859.97;;;6.57;84.18
33151;BME280;19508;42.578;23.416;2024-03-08T07:20:06;93856.53;;;6.68;84.63
33151;BME280;19508;42.578;23.416;2024-03-08T07:22:33;93851.69;;;7.00;84.63
33151;BME280;19508;42.578;23.416;2024-03-08T07:24:58;93853.53;;;6.99;82.78
33151;BME280;19508;42.578;23.416;2024-03-08T07:27:32;93860.53;;;6.89;82.86
33151;BME280;19508;42.578;23.416;2024-03-08T07:29:59;93851.72;;;7.12;83.10
33151;BME280;19508;42.578;23.416;2024-03-08T07:32:26;93851.28;;;7.26;82.42
33151;BME280;19508;42.578;23.416;2024-03-08T07:34:53;93853.00;;;7.21;82.61
33151;BME280;19508;42.578;23.416;2024-03-08T07:37:20;93849.38;;;7.03;82.39
33151;BME280;19508;42.578;23.416;2024-03-08T07:39:46;93843.19;;;6.91;82.75
33151;BME280;19508;42.578;23.416;2024-03-08T07:42:11;93848.25;;;6.69;83.89
33151;BME280;19508;42.578;23.416;2024-03-08T07:44:37;93843.25;;;6.73;84.04
33151;BME280;19508;42.578;23.416;2024-03-08T07:47:03;93868.47;;;6.95;83.70
33151;BME280;19508;42.578;23.416;2024-03-08T07:49:29;93860.50;;;6.77;84.36
33151;BME280;19508;42.578;23.416;2024-03-08T07:51:55;93856.44;;;6.86;84.79
33151;BME280;19508;42.578;23.416;2024-03-08T07:54:21;93844.38;;;6.95;84.49
33151;BME280;19508;42.578;23.416;2024-03-08T07:56:47;93866.50;;;6.61;83.96
33151;BME280;19508;42.578;23.416;2024-03-08T07:59:12;93866.69;;;6.47;84.13
33151;BME280;19508;42.578;23.416;2024-03-08T08:01:38;93861.31;;;6.47;84.38
33151;BME280;19508;42.578;23.416;2024-03-08T08:04:03;93869.63;;;6.99;84.21
33151;BME280;19508;42.578;23.416;2024-03-08T08:06:30;93866.84;;;7.18;83.40
33151;BME280;19508;42.578;23.416;2024-03-08T08:08:58;93849.97;;;7.41;82.58
33151;BME280;19508;42.578;23.416;2024-03-08T08:11:26;93871.91;;;7.61;82.06
33151;BME280;19508;42.578;23.416;2024-03-08T08:13:53;93867.09;;;7.51;80.51
33151;BME280;19508;42.578;23.416;2024-03-08T08:16:20;93869.53;;;7.41;80.65
33151;BME280;19508;42.578;23.416;2024-03-08T08:18:45;93857.78;;;7.66;80.57
33151;BME280;19508;42.578;23.416;2024-03-08T08:21:11;93859.41;;;7.78;79.01
33151;BME280;19508;42.578;23.416;2024-03-08T08:23:36;93861.81;;;7.91;79.87
33151;BME280;19508;42.578;23.416;2024-03-08T08:26:02;93864.09;;;8.23;78.35
33151;BME280;19508;42.578;23.416;2024-03-08T08:28:29;93867.06;;;7.98;78.31
33151;BME280;19508;42.578;23.416;2024-03-08T08:30:56;93860.03;;;8.20;77.29
33151;BME280;19508;42.578;23.416;2024-03-08T08:33:21;93861.69;;;8.50;76.58
33151;BME280;19508;42.578;23.416;2024-03-08T08:35:46;93863.50;;;8.90;73.35
33151;BME280;19508;42.578;23.416;2024-03-08T08:38:13;93865.41;;;9.06;73.10
33151;BME280;19508;42.578;23.416;2024-03-08T08:40:38;93859.78;;;9.24;71.83
33151;BME280;19508;42.578;23.416;2024-03-08T08:43:05;93857.38;;;9.78;72.72
33151;BME280;19508;42.578;23.416;2024-03-08T08:45:31;93858.34;;;10.28;69.01
33151;BME280;19508;42.578;23.416;2024-03-08T08:47:57;93854.81;;;9.88;71.45
33151;BME280;19508;42.578;23.416;2024-03-08T08:50:25;93856.31;;;10.40;65.56
33151;BME280;19508;42.578;23.416;2024-03-08T08:52:52;93842.59;;;10.63;65.00
33151;BME280;19508;42.578;23.416;2024-03-08T08:55:18;93851.38;;;11.08;63.45
33151;BME280;19508;42.578;23.416;2024-03-08T08:57:46;93838.91;;;10.69;63.07
33151;BME280;19508;42.578;23.416;2024-03-08T09:00:13;93840.00;;;11.00;64.16
33151;BME280;19508;42.578;23.416;2024-03-08T09:02:41;93846.06;;;9.76;67.69
33151;BME280;19508;42.578;23.416;2024-03-08T09:05:07;93847.53;;;9.67;69.45
33151;BME280;19508;42.578;23.416;2024-03-08T09:07:36;93852.00;;;10.17;67.44
33151;BME280;19508;42.578;23.416;2024-03-08T09:10:03;93847.25;;;10.24;64.98
33151;BME280;19508;42.578;23.416;2024-03-08T09:12:28;93853.56;;;9.74;66.65
33151;BME280;19508;42.578;23.416;2024-03-08T09:14:54;93850.81;;;9.36;70.32
33151;BME280;19508;42.578;23.416;2024-03-08T09:17:20;93852.28;;;9.43;68.97
33151;BME280;19508;42.578;23.416;2024-03-08T09:19:49;93853.91;;;9.61;68.86
33151;BME280;19508;42.578;23.416;2024-03-08T09:22:15;93854.81;;;9.50;68.50
33151;BME280;19508;42.578;23.416;2024-03-08T09:24:41;93848.63;;;9.66;65.73
33151;BME280;19508;42.578;23.416;2024-03-08T09:27:08;93852.97;;;10.11;66.80
33151;BME280;19508;42.578;23.416;2024-03-08T09:29:35;93851.19;;;10.38;64.07
33151;BME280;19508;42.578;23.416;2024-03-08T09:32:00;93837.28;;;10.47;66.59
33151;BME280;19508;42.578;23.416;2024-03-08T09:34:32;93859.44;;;10.54;64.57
33151;BME280;19508;42.578;23.416;2024-03-08T09:36:57;93845.00;;;10.87;61.71
33151;BME280;19508;42.578;23.416;2024-03-08T09:39:23;93837.38;;;10.79;60.07
33151;BME280;19508;42.578;23.416;2024-03-08T09:41:48;93844.69;;;10.83;61.11
33151;BME280;19508;42.578;23.416;2024-03-08T09:44:17;93843.78;;;10.51;62.37
33151;BME280;19508;42.578;23.416;2024-03-08T09:46:45;93842.50;;;10.80;63.45
33151;BME280;19508;42.578;23.416;2024-03-08T09:49:12;93852.88;;;11.95;56.63
33151;BME280;19508;42.578;23.416;2024-03-08T09:51:38;93849.09;;;11.91;53.49
33151;BME280;19508;42.578;23.416;2024-03-08T09:54:06;93837.78;;;12.61;50.75
33151;BME280;19508;42.578;23.416;2024-03-08T09:56:39;93842.84;;;13.25;48.18
33151;BME280;19508;42.578;23.416;2024-03-08T09:59:06;93829.25;;;13.00;47.58
33151;BME280;19508;42.578;23.416;2024-03-08T10:01:51;93836.81;;;13.13;48.77
33151;BME280;19508;42.578;23.416;2024-03-08T10:04:17;93838.69;;;12.87;51.66
33151;BME280;19508;42.578;23.416;2024-03-08T10:06:43;93834.09;;;12.88;50.20
33151;BME280;19508;42.578;23.416;2024-03-08T10:09:12;93831.69;;;13.02;48.47
33151;BME280;19508;42.578;23.416;2024-03-08T10:11:37;93827.63;;;12.99;48.68
33151;BME280;19508;42.578;23.416;2024-03-08T10:14:04;93838.88;;;11.98;52.65
33151;BME280;19508;42.578;23.416;2024-03-08T10:16:31;93843.09;;;11.46;53.90
33151;BME280;19508;42.578;23.416;2024-03-08T10:18:57;93846.00;;;11.08;56.55
33151;BME280;19508;42.578;23.416;2024-03-08T10:21:22;93836.03;;;10.81;56.53
33151;BME280;19508;42.578;23.416;2024-03-08T10:23:48;93846.63;;;10.61;57.04
33151;BME280;19508;42.578;23.416;2024-03-08T10:26:15;93833.25;;;10.71;56.91
33151;BME280;19508;42.578;23.416;2024-03-08T10:28:45;93841.88;;;10.73;55.50
33151;BME280;19508;42.578;23.416;2024-03-08T10:31:13;93841.03;;;10.94;55.84
33151;BME280;19508;42.578;23.416;2024-03-08T10:33:40;93839.97;;;10.95;55.85
33151;BME280;19508;42.578;23.416;2024-03-08T10:36:11;93831.91;;;11.33;54.65
33151;BME280;19508;42.578;23.416;2024-03-08T10:38:51;93834.00;;;11.25;50.52
33151;BME280;19508;42.578;23.416;2024-03-08T10:41:18;93827.03;;;12.04;52.21
33151;BME280;19508;42.578;23.416;2024-03-08T10:49:17;93818.19;;;12.19;50.76
33151;BME280;19508;42.578;23.416;2024-03-08T10:51:46;93815.53;;;12.24;49.86
33151;BME280;19508;42.578;23.416;2024-03-08T10:54:14;93816.84;;;11.79;52.52
33151;BME280;19508;42.578;23.416;2024-03-08T10:56:40;93811.75;;;11.40;52.19
33151;BME280;19508;42.578;23.416;2024-03-08T10:59:08;93809.19;;;11.61;53.20
33151;BME280;19508;42.578;23.416;2024-03-08T11:01:33;93813.63;;;11.77;51.80
33151;BME280;19508;42.578;23.416;2024-03-08T11:03:59;93812.63;;;11.83;54.15
33151;BME280;19508;42.578;23.416;2024-03-08T11:09:36;93805.00;;;12.27;48.19
33151;BME280;19508;42.578;23.416;2024-03-08T11:12:25;93809.31;;;11.76;51.20
33151;BME280;19508;42.578;23.416;2024-03-08T11:14:55;93804.16;;;12.17;50.05
33151;BME280;19508;42.578;23.416;2024-03-08T11:19:55;93807.16;;;12.25;48.71
33151;BME280;19508;42.578;23.416;2024-03-08T11:22:28;93797.31;;;11.99;49.79
33151;BME280;19508;42.578;23.416;2024-03-08T11:25:09;93797.81;;;11.48;50.17
33151;BME280;19508;42.578;23.416;2024-03-08T11:27:38;93791.22;;;12.24;50.08
33151;BME280;19508;42.578;23.416;2024-03-08T11:30:07;93790.22;;;11.82;51.16
33151;BME280;19508;42.578;23.416;2024-03-08T11:32:46;93789.25;;;11.62;50.44
33151;BME280;19508;42.578;23.416;2024-03-08T11:35:20;93784.03;;;11.87;50.57
33151;BME280;19508;42.578;23.416;2024-03-08T11:37:46;93784.75;;;12.30;48.89
33151;BME280;19508;42.578;23.416;2024-03-08T11:40:14;93770.28;;;12.61;47.51
33151;BME280;19508;42.578;23.416;2024-03-08T11:42:49;93773.31;;;13.62;46.81
33151;BME280;19508;42.578;23.416;2024-03-08T11:45:17;93768.47;;;15.27;43.03
33151;BME280;19508;42.578;23.416;2024-03-08T11:47:43;93767.31;;;16.44;39.86
33151;BME280;19508;42.578;23.416;2024-03-08T11:50:11;93769.50;;;15.94;39.72
33151;BME280;19508;42.578;23.416;2024-03-08T11:52:37;93769.69;;;15.11;41.10
33151;BME280;19508;42.578;23.416;2024-03-08T11:55:06;93772.91;;;14.14;43.30
33151;BME280;19508;42.578;23.416;2024-03-08T11:57:31;93771.69;;;13.10;45.81
33151;BME280;19508;42.578;23.416;2024-03-08T11:59:58;93779.38;;;12.35;47.20
33151;BME280;19508;42.578;23.416;2024-03-08T12:02:32;93780.41;;;12.13;48.39
33151;BME280;19508;42.578;23.416;2024-03-08T12:04:58;93764.41;;;12.02;48.76
33151;BME280;19508;42.578;23.416;2024-03-08T12:07:25;93776.03;;;12.07;47.39
33151;BME280;19508;42.578;23.416;2024-03-08T12:10:16;93770.19;;;12.26;48.47
33151;BME280;19508;42.578;23.416;2024-03-08T12:12:47;93768.34;;;14.04;44.87
33151;BME280;19508;42.578;23.416;2024-03-08T12:15:15;93769.56;;;14.32;42.45
33151;BME280;19508;42.578;23.416;2024-03-08T12:17:40;93763.06;;;13.23;44.30
33151;BME280;19508;42.578;23.416;2024-03-08T12:20:25;93768.19;;;13.09;45.93
33151;BME280;19508;42.578;23.416;2024-03-08T12:22:52;93766.22;;;12.59;45.28
33151;BME280;19508;42.578;23.416;2024-03-08T12:25:19;93766.47;;;12.52;47.94
33151;BME280;19508;42.578;23.416;2024-03-08T12:27:46;93752.13;;;12.36;46.30
33151;BME280;19508;42.578;23.416;2024-03-08T12:30:22;93770.63;;;12.02;49.02
33151;BME280;19508;42.578;23.416;2024-03-08T12:32:59;93759.97;;;12.43;48.11
33151;BME280;19508;42.578;23.416;2024-03-08T12:35:27;93751.53;;;12.14;46.83
33151;BME280;19508;42.578;23.416;2024-03-08T12:37:55;93757.22;;;12.28;47.21
33151;BME280;19508;42.578;23.416;2024-03-08T12:40:28;93749.88;;;12.08;48.59
33151;BME280;19508;42.578;23.416;2024-03-08T12:42:55;93750.16;;;12.17;47.94
33151;BME280;19508;42.578;23.416;2024-03-08T12:45:22;93759.22;;;11.85;47.94
33151;BME280;19508;42.578;23.416;2024-03-08T12:47:52;93760.81;;;11.86;48.78
33151;BME280;19508;42.578;23.416;2024-03-08T12:50:19;93758.97;;;11.07;51.63
33151;BME280;19508;42.578;23.416;2024-03-08T12:52:44;93750.00;;;11.01;50.76
33151;BME280;19508;42.578;23.416;2024-03-08T12:55:10;93745.66;;;11.33;50.80
33151;BME280;19508;42.578;23.416;2024-03-08T12:57:35;93748.56;;;11.26;51.03
33151;BME280;19508;42.578;23.416;2024-03-08T13:00:03;93752.13;;;11.74;52.56
33151;BME280;19508;42.578;23.416;2024-03-08T13:02:30;93751.00;;;11.70;50.21
33151;BME280;19508;42.578;23.416;2024-03-08T13:04:57;93746.59;;;11.53;49.31
33151;BME280;19508;42.578;23.416;2024-03-08T13:07:23;93753.00;;;11.42;49.66
33151;BME280;19508;42.578;23.416;2024-03-08T13:09:54;93749.22;;;11.38;51.05